Time;durP1;ratioP1;P1;durP2;ratioP2;P2;SDS_P1;SDS_P2;PMS_P1;PMS_P2;Temp;Humidity;BMP_temperature;BMP_pressure;BME280_temperature;BME280_humidity;BME280_pressure;Samples;Min_cycle;Max_cycle;Signal;HPM_P1;HPM_P2
2021/09/16 00:00:36;;;;;;;1.87;0.87;;;;;;;-145.18;100.00;60484.78;5018203;28;20041;-71
2021/09/16 00:03:02;;;;;;;1.93;0.83;;;;;;;-145.18;100.00;60484.78;5017182;28;20172;-71
2021/09/16 00:05:27;;;;;;;2.00;0.60;;;;;;;-145.18;100.00;60484.78;5018025;28;20176;-71
2021/09/16 00:07:53;;;;;;;1.63;0.47;;;;;;;-145.18;100.00;60484.78;5017934;28;20033;-71
2021/09/16 00:10:19;;;;;;;0.97;0.30;;;;;;;-145.18;100.00;60484.78;5017429;28;20039;-71
2021/09/16 00:12:44;;;;;;;2.27;0.57;;;;;;;-145.18;100.00;60484.78;5018205;28;20029;-71
2021/09/16 00:15:12;;;;;;;3.23;0.50;;;;;;;-145.18;100.00;60484.78;5019460;28;20255;-71
2021/09/16 00:17:38;;;;;;;3.53;0.80;;;;;;;-145.18;100.00;60484.78;5018251;28;20493;-71
2021/09/16 00:20:05;;;;;;;3.40;0.93;;;;;;;-145.18;100.00;60484.78;5018647;28;20076;-71
2021/09/16 00:22:31;;;;;;;1.20;0.57;;;;;;;-145.18;100.00;60484.78;5018220;28;20504;-71
2021/09/16 00:24:56;;;;;;;2.53;0.50;;;;;;;-145.18;100.00;60484.78;5019271;28;20120;-71
2021/09/16 00:27:22;;;;;;;2.37;0.63;;;;;;;-145.18;100.00;60484.78;5019582;28;20238;-71
2021/09/16 00:29:48;;;;;;;3.07;0.57;;;;;;;-145.18;100.00;60484.78;5014551;28;20246;-71
2021/09/16 00:32:13;;;;;;;2.97;0.60;;;;;;;-145.18;100.00;60484.78;5018657;28;20093;-71
2021/09/16 00:34:39;;;;;;;1.73;0.63;;;;;;;-145.18;100.00;60484.78;5019300;28;20516;-71
2021/09/16 00:37:05;;;;;;;3.13;0.63;;;;;;;-145.18;100.00;60484.78;5012726;28;20051;-71
2021/09/16 00:39:30;;;;;;;1.77;0.60;;;;;;;-145.18;100.00;60484.78;5019239;28;20346;-71
2021/09/16 00:41:56;;;;;;;1.80;0.50;;;;;;;-145.18;100.00;60484.78;5017732;28;20116;-71
2021/09/16 00:44:21;;;;;;;3.57;0.60;;;;;;;-145.18;100.00;60484.78;5018048;28;20064;-71
2021/09/16 00:46:48;;;;;;;0.80;0.50;;;;;;;-145.18;100.00;60484.78;5018535;28;20044;-71
2021/09/16 00:49:13;;;;;;;2.83;0.63;;;;;;;-145.18;100.00;60484.78;5017981;28;20033;-71
2021/09/16 00:51:39;;;;;;;3.53;0.70;;;;;;;-145.18;100.00;60484.78;5018384;28;20659;-71
2021/09/16 00:54:08;;;;;;;3.83;0.60;;;;;;;-145.18;100.00;60484.78;5018687;28;20274;-71
2021/09/16 00:56:34;;;;;;;2.03;0.80;;;;;;;-145.18;100.00;60484.78;5018571;28;20422;-71
2021/09/16 00:59:02;;;;;;;4.03;0.60;;;;;;;-145.18;100.00;60484.78;5018509;28;20036;-71
2021/09/16 01:01:29;;;;;;;5.03;0.80;;;;;;;-145.18;100.00;60484.78;5008254;28;20167;-68
2021/09/16 01:03:56;;;;;;;1.23;0.60;;;;;;;-145.18;100.00;60484.78;5036382;22;20056;-71
2021/09/16 01:06:22;;;;;;;3.17;0.70;;;;;;;-145.18;100.00;60484.78;5013797;28;20403;-72
2021/09/16 01:08:48;;;;;;;3.50;0.70;;;;;;;-145.18;100.00;60484.78;5017488;28;20030;-72
2021/09/16 01:11:14;;;;;;;6.80;1.43;;;;;;;-145.18;100.00;60484.78;5017471;28;20059;-71
2021/09/16 01:13:42;;;;;;;2.90;0.70;;;;;;;-145.18;100.00;60484.78;5016854;28;20257;-71
2021/09/16 01:16:08;;;;;;;3.80;0.80;;;;;;;-145.18;100.00;60484.78;5016903;28;20084;-72
2021/09/16 01:18:33;;;;;;;3.10;1.30;;;;;;;-145.18;100.00;60484.78;5016521;28;21386;-72
2021/09/16 01:20:59;;;;;;;4.70;1.00;;;;;;;-145.18;100.00;60484.78;5017064;28;20037;-71
2021/09/16 01:23:25;;;;;;;3.87;0.90;;;;;;;-145.18;100.00;60484.78;5016856;28;20036;-72
2021/09/16 01:25:50;;;;;;;3.77;1.20;;;;;;;-145.18;100.00;60484.78;5016558;28;20029;-71
2021/09/16 01:28:16;;;;;;;8.67;0.90;;;;;;;-145.18;100.00;60484.78;5016816;28;20053;-71
2021/09/16 01:30:44;;;;;;;3.93;1.27;;;;;;;-145.18;100.00;60484.78;5020364;28;20117;-71
2021/09/16 01:33:10;;;;;;;4.20;0.83;;;;;;;-145.18;100.00;60484.78;5020261;28;20316;-72
2021/09/16 01:35:35;;;;;;;7.80;1.70;;;;;;;-145.18;100.00;60484.78;5021000;28;20025;-72
2021/09/16 01:38:01;;;;;;;1.37;0.77;;;;;;;-145.18;100.00;60484.78;5020144;28;20438;-71
2021/09/16 01:40:27;;;;;;;4.07;0.80;;;;;;;-145.18;100.00;60484.78;5020581;28;20029;-72
2021/09/16 01:42:53;;;;;;;2.73;0.90;;;;;;;-145.18;100.00;60484.78;5019832;28;20132;-71
2021/09/16 01:45:21;;;;;;;2.37;0.70;;;;;;;-145.18;100.00;60484.78;5017610;28;20079;-71
2021/09/16 01:47:47;;;;;;;1.97;0.77;;;;;;;-145.18;100.00;60484.78;5020149;28;20036;-71
2021/09/16 01:50:15;;;;;;;2.13;0.70;;;;;;;-145.18;100.00;60484.78;5022647;28;20210;-71
2021/09/16 01:52:41;;;;;;;4.30;0.90;;;;;;;-145.18;100.00;60484.78;5020484;28;20034;-72
2021/09/16 01:55:08;;;;;;;4.60;1.17;;;;;;;-145.18;100.00;60484.78;5019823;28;20116;-72
2021/09/16 01:57:34;;;;;;;5.77;0.87;;;;;;;-145.18;100.00;60484.78;5020164;28;20036;-72
2021/09/16 02:00:00;;;;;;;2.90;0.90;;;;;;;-145.18;100.00;60484.78;5019727;28;20491;-71
2021/09/16 02:02:25;;;;;;;2.47;0.90;;;;;;;-145.18;100.00;60484.78;5017729;28;20029;-71
2021/09/16 02:04:51;;;;;;;3.60;1.30;;;;;;;-145.18;100.00;60484.78;5017946;28;20045;-71
2021/09/16 02:07:17;;;;;;;5.33;1.27;;;;;;;-145.18;100.00;60484.78;5019689;28;20263;-71
2021/09/16 02:09:42;;;;;;;5.40;1.13;;;;;;;-145.18;100.00;60484.78;5020191;28;20025;-72
2021/09/16 02:12:08;;;;;;;2.60;0.73;;;;;;;-145.18;100.00;60484.78;5020027;28;20427;-71
2021/09/16 02:14:34;;;;;;;4.40;1.73;;;;;;;-145.18;100.00;60484.78;5019246;28;20025;-72
2021/09/16 02:16:59;;;;;;;6.47;1.00;;;;;;;-145.18;100.00;60484.78;5018778;28;20334;-71
2021/09/16 02:19:25;;;;;;;3.93;0.90;;;;;;;-145.18;100.00;60484.78;5019917;28;20029;-72
2021/09/16 02:21:51;;;;;;;4.53;1.13;;;;;;;-145.18;100.00;60484.78;5019383;28;20060;-71
2021/09/16 02:24:17;;;;;;;3.40;0.80;;;;;;;-145.18;100.00;60484.78;5019515;28;20350;-72
2021/09/16 02:26:42;;;;;;;4.80;1.07;;;;;;;-145.18;100.00;60484.78;5019825;28;20032;-71
2021/09/16 02:29:08;;;;;;;2.73;0.80;;;;;;;-145.18;100.00;60484.78;5019304;28;20608;-71
2021/09/16 02:31:33;;;;;;;1.87;0.70;;;;;;;-145.18;100.00;60484.78;5018054;28;20036;-71
2021/09/16 02:33:59;;;;;;;4.10;0.80;;;;;;;-145.18;100.00;60484.78;5016848;28;20062;-71
2021/09/16 02:36:25;;;;;;;3.37;0.70;;;;;;;-145.18;100.00;60484.78;5020101;28;20068;-71
2021/09/16 02:38:51;;;;;;;4.00;0.90;;;;;;;-145.18;100.00;60484.78;5016717;28;20053;-72
2021/09/16 02:41:16;;;;;;;3.40;0.80;;;;;;;-145.18;100.00;60484.78;5018573;28;20326;-71
2021/09/16 02:43:42;;;;;;;6.37;1.10;;;;;;;-145.18;100.00;60484.78;5019566;28;20540;-71
2021/09/16 02:46:07;;;;;;;2.37;1.00;;;;;;;-145.18;100.00;60484.78;5017464;28;20166;-71
2021/09/16 02:48:34;;;;;;;2.13;0.80;;;;;;;-145.18;100.00;60484.78;5018986;28;20182;-71
2021/09/16 02:51:00;;;;;;;2.93;0.90;;;;;;;-145.18;100.00;60484.78;5016937;28;20113;-71
2021/09/16 02:53:25;;;;;;;2.73;0.87;;;;;;;-145.18;100.00;60484.78;5019473;28;20610;-72
2021/09/16 02:55:51;;;;;;;2.60;0.90;;;;;;;-145.18;100.00;60484.78;5019273;28;20033;-72
2021/09/16 02:58:16;;;;;;;3.27;1.07;;;;;;;-145.18;100.00;60484.78;5019260;28;20025;-71
2021/09/16 03:00:42;;;;;;;5.63;0.80;;;;;;;-145.18;100.00;60484.78;5018976;28;20777;-71
2021/09/16 03:03:08;;;;;;;2.43;1.10;;;;;;;-145.18;100.00;60484.78;5017461;28;20033;-71
2021/09/16 03:05:33;;;;;;;2.80;0.90;;;;;;;-145.18;100.00;60484.78;5018666;28;20049;-71
2021/09/16 03:07:59;;;;;;;3.90;1.00;;;;;;;-145.18;100.00;60484.78;5019066;28;20029;-71
2021/09/16 03:10:25;;;;;;;3.33;0.90;;;;;;;-145.18;100.00;60484.78;5018846;28;20470;-72
2021/09/16 03:12:52;;;;;;;2.30;1.00;;;;;;;-145.18;100.00;60484.78;5018696;28;20455;-72
2021/09/16 03:15:18;;;;;;;1.63;0.97;;;;;;;-145.18;100.00;60484.78;5018924;28;20565;-71
2021/09/16 03:17:44;;;;;;;3.03;0.90;;;;;;;-145.18;100.00;60484.78;5018750;28;20301;-72
2021/09/16 03:20:10;;;;;;;5.27;0.93;;;;;;;-145.18;100.00;60484.78;5018359;28;20128;-72
2021/09/16 03:22:40;;;;;;;4.00;0.80;;;;;;;-145.18;100.00;60484.78;5014364;28;20045;-72
2021/09/16 03:25:10;;;;;;;5.03;0.97;;;;;;;-145.18;100.00;60484.78;5018185;28;20034;-71
2021/09/16 03:27:35;;;;;;;4.63;0.80;;;;;;;-145.18;100.00;60484.78;5017339;28;20060;-72
2021/09/16 03:30:02;;;;;;;1.30;0.73;;;;;;;-145.18;100.00;60484.78;5017689;28;20021;-72
2021/09/16 03:32:28;;;;;;;3.27;0.90;;;;;;;-145.18;100.00;60484.78;5017031;28;20605;-72
2021/09/16 03:34:54;;;;;;;4.03;0.97;;;;;;;-145.18;100.00;60484.78;5018433;28;20108;-72
2021/09/16 03:37:19;;;;;;;3.03;0.77;;;;;;;-145.18;100.00;60484.78;5018620;28;20087;-72
2021/09/16 03:39:45;;;;;;;2.87;1.03;;;;;;;-145.18;100.00;60484.78;5018177;28;20022;-71
2021/09/16 03:42:10;;;;;;;2.13;0.90;;;;;;;-145.18;100.00;60484.78;5017733;28;20256;-71
2021/09/16 03:44:36;;;;;;;4.20;1.13;;;;;;;-145.18;100.00;60484.78;5016722;28;20388;-72
2021/09/16 03:47:06;;;;;;;2.60;1.20;;;;;;;-145.18;100.00;60484.78;5017248;28;20722;-71
2021/09/16 03:49:35;;;;;;;3.50;0.90;;;;;;;-145.18;100.00;60484.78;5018242;28;20037;-71
2021/09/16 03:52:02;;;;;;;2.50;1.33;;;;;;;-145.18;100.00;60484.78;5017152;28;20150;-72
2021/09/16 03:54:28;;;;;;;3.60;0.80;;;;;;;-145.18;100.00;60484.78;5017734;28;20048;-72
2021/09/16 03:56:54;;;;;;;4.20;1.00;;;;;;;-145.18;100.00;60484.78;5016514;28;20411;-72
2021/09/16 03:59:19;;;;;;;4.57;1.00;;;;;;;-145.18;100.00;60484.78;5018139;28;20278;-72
2021/09/16 04:01:45;;;;;;;1.67;0.80;;;;;;;-145.18;100.00;60484.78;5017178;28;20186;-72
2021/09/16 04:04:11;;;;;;;3.87;0.80;;;;;;;-145.18;100.00;60484.78;5017779;28;20515;-72
2021/09/16 04:06:36;;;;;;;6.30;3.93;;;;;;;-145.18;100.00;60484.78;5017317;28;20388;-72
2021/09/16 04:09:02;;;;;;;3.57;1.00;;;;;;;-145.18;100.00;60484.78;5017537;28;20160;-72
2021/09/16 04:11:28;;;;;;;4.97;1.00;;;;;;;-145.18;100.00;60484.78;5017648;28;20021;-71
2021/09/16 04:13:53;;;;;;;2.83;1.00;;;;;;;-145.18;100.00;60484.78;5018152;28;20032;-71
2021/09/16 04:16:19;;;;;;;3.17;0.80;;;;;;;-145.18;100.00;60484.78;5016708;28;20444;-72
2021/09/16 04:18:44;;;;;;;3.00;1.10;;;;;;;-145.18;100.00;60484.78;5017482;28;20358;-72
2021/09/16 04:21:10;;;;;;;3.00;0.90;;;;;;;-145.18;100.00;60484.78;5011543;28;20025;-72
2021/09/16 04:23:35;;;;;;;4.97;0.97;;;;;;;-145.18;100.00;60484.78;5013340;28;20037;-71
2021/09/16 04:26:01;;;;;;;2.57;0.90;;;;;;;-145.18;100.00;60484.78;5017954;28;20048;-72
2021/09/16 04:28:26;;;;;;;4.97;0.90;;;;;;;-145.18;100.00;60484.78;5016557;28;20037;-71
2021/09/16 04:30:51;;;;;;;7.67;1.00;;;;;;;-145.18;100.00;60484.78;5017151;28;20141;-72
2021/09/16 04:33:20;;;;;;;2.63;1.00;;;;;;;-145.18;100.00;60484.78;5017313;28;20305;-72
2021/09/16 04:35:46;;;;;;;3.57;1.00;;;;;;;-145.18;100.00;60484.78;5012847;28;20029;-72
2021/09/16 04:38:14;;;;;;;3.93;1.00;;;;;;;-145.18;100.00;60484.78;5015633;28;20268;-71
2021/09/16 04:40:40;;;;;;;3.30;1.00;;;;;;;-145.18;100.00;60484.78;5017351;28;20177;-71
2021/09/16 04:43:06;;;;;;;3.17;0.90;;;;;;;-145.18;100.00;60484.78;5017516;28;20049;-71
2021/09/16 04:45:31;;;;;;;6.13;1.30;;;;;;;-145.18;100.00;60484.78;5011245;28;20044;-71
2021/09/16 04:47:57;;;;;;;6.20;2.20;;;;;;;-145.18;100.00;60484.78;5017459;28;20411;-72
2021/09/16 04:50:22;;;;;;;2.00;0.90;;;;;;;-145.18;100.00;60484.78;5018135;28;20037;-71
2021/09/16 04:52:48;;;;;;;2.03;0.90;;;;;;;-145.18;100.00;60484.78;5017663;28;20299;-71
2021/09/16 04:55:13;;;;;;;5.47;1.00;;;;;;;-145.18;100.00;60484.78;5017541;28;20044;-71
2021/09/16 04:57:39;;;;;;;1.90;0.90;;;;;;;-145.18;100.00;60484.78;5017983;28;20273;-72
2021/09/16 05:00:06;;;;;;;4.77;0.83;;;;;;;-145.18;100.00;60484.78;5016653;28;20060;-71
2021/09/16 05:02:31;;;;;;;8.10;1.47;;;;;;;-145.18;100.00;60484.78;5016631;28;20249;-71
2021/09/16 05:04:57;;;;;;;5.40;1.00;;;;;;;-145.18;100.00;60484.78;5015484;28;20068;-71
2021/09/16 05:07:22;;;;;;;2.97;1.03;;;;;;;-145.18;100.00;60484.78;5020129;28;20041;-71
2021/09/16 05:09:48;;;;;;;2.77;0.70;;;;;;;-145.18;100.00;60484.78;5018752;28;20033;-72
2021/09/16 05:12:13;;;;;;;5.00;0.90;;;;;;;-145.18;100.00;60484.78;5018808;28;20025;-73
2021/09/16 05:14:39;;;;;;;3.73;1.20;;;;;;;-145.18;100.00;60484.78;5020362;28;20049;-71
2021/09/16 05:17:04;;;;;;;4.50;0.80;;;;;;;-145.18;100.00;60484.78;5021055;28;20534;-71
2021/09/16 05:19:30;;;;;;;4.17;1.53;;;;;;;-145.18;100.00;60484.78;5019429;28;20083;-71
2021/09/16 05:21:55;;;;;;;4.07;1.47;;;;;;;-145.18;100.00;60484.78;5019357;28;20021;-72
2021/09/16 05:24:21;;;;;;;3.97;1.10;;;;;;;-145.18;100.00;60484.78;5020629;28;20583;-71
2021/09/16 05:26:48;;;;;;;5.50;1.33;;;;;;;-145.18;100.00;60484.78;5020301;28;20052;-72
2021/09/16 05:29:13;;;;;;;4.47;1.60;;;;;;;-145.18;100.00;60484.78;5021611;28;20183;-71
2021/09/16 05:31:39;;;;;;;5.70;1.30;;;;;;;-145.18;100.00;60484.78;5020478;28;20491;-70
2021/09/16 05:34:15;;;;;;;5.03;1.40;;;;;;;-145.18;100.00;60484.78;5020872;28;20021;-71
2021/09/16 05:36:40;;;;;;;4.27;1.60;;;;;;;-145.18;100.00;60484.78;5021290;28;20242;-71
2021/09/16 05:39:06;;;;;;;5.03;1.53;;;;;;;-145.18;100.00;60484.78;5020783;28;20175;-72
2021/09/16 05:41:31;;;;;;;4.47;1.67;;;;;;;-145.18;100.00;60484.78;5020663;28;20040;-71
2021/09/16 05:43:57;;;;;;;3.83;1.60;;;;;;;-145.18;100.00;60484.78;5020941;28;20025;-72
2021/09/16 05:46:23;;;;;;;5.10;1.87;;;;;;;-145.18;100.00;60484.78;5021305;28;20013;-72
2021/09/16 05:48:49;;;;;;;4.67;2.10;;;;;;;-145.18;100.00;60484.78;5020669;28;20044;-73
2021/09/16 05:51:14;;;;;;;6.00;1.70;;;;;;;-145.18;100.00;60484.78;5020418;28;20527;-72
2021/09/16 05:53:40;;;;;;;7.03;2.10;;;;;;;-145.18;100.00;60484.78;5020673;28;20385;-73
2021/09/16 05:56:05;;;;;;;6.20;2.00;;;;;;;-145.18;100.00;60484.78;5020302;28;20017;-73
2021/09/16 05:58:33;;;;;;;4.90;1.60;;;;;;;-145.18;100.00;60484.78;5019995;28;20480;-73
2021/09/16 06:00:59;;;;;;;7.03;2.00;;;;;;;-145.18;100.00;60484.78;5019994;28;20129;-73
2021/09/16 06:03:24;;;;;;;5.00;1.50;;;;;;;-145.18;100.00;60484.78;5020186;28;20057;-72
2021/09/16 06:05:50;;;;;;;5.13;1.87;;;;;;;-145.18;100.00;60484.78;5020531;28;20041;-73
2021/09/16 06:08:15;;;;;;;4.97;1.90;;;;;;;-145.18;100.00;60484.78;5019381;28;20025;-73
2021/09/16 06:10:41;;;;;;;5.50;1.70;;;;;;;-145.18;100.00;60484.78;5020339;28;20608;-72
2021/09/16 06:13:07;;;;;;;7.03;2.10;;;;;;;-145.18;100.00;60484.78;5019737;28;20103;-72
2021/09/16 06:15:33;;;;;;;4.43;1.90;;;;;;;-145.18;100.00;60484.78;5019153;28;20025;-73
2021/09/16 06:17:58;;;;;;;6.23;2.07;;;;;;;-145.18;100.00;60484.78;5019246;28;20037;-73
2021/09/16 06:20:24;;;;;;;4.77;2.03;;;;;;;-145.18;100.00;60484.78;5020034;28;20523;-73
2021/09/16 06:22:49;;;;;;;7.23;2.13;;;;;;;-145.18;100.00;60484.78;5019161;28;20205;-73
2021/09/16 06:25:16;;;;;;;6.40;1.90;;;;;;;-145.18;100.00;60484.78;5020003;28;20022;-73
2021/09/16 06:27:43;;;;;;;5.90;2.10;;;;;;;-145.18;100.00;60484.78;5018342;28;20048;-73
2021/09/16 06:30:10;;;;;;;4.67;1.90;;;;;;;-145.18;100.00;60484.78;5018833;28;20025;-73
2021/09/16 06:32:43;;;;;;;5.30;1.80;;;;;;;-145.18;100.00;60484.78;5018924;28;20021;-73
2021/09/16 06:35:09;;;;;;;5.00;1.80;;;;;;;-145.18;100.00;60484.78;5018894;28;20013;-74
2021/09/16 06:37:34;;;;;;;4.27;1.80;;;;;;;-145.18;100.00;60484.78;5019738;28;20108;-73
2021/09/16 06:40:00;;;;;;;4.57;2.10;;;;;;;-145.18;100.00;60484.78;5020399;28;20083;-73
2021/09/16 06:42:26;;;;;;;5.77;2.00;;;;;;;-145.18;100.00;60484.78;5018784;28;20490;-74
2021/09/16 06:44:51;;;;;;;4.97;2.03;;;;;;;-145.18;100.00;60484.78;5012328;28;20526;-73
2021/09/16 06:47:17;;;;;;;5.57;2.27;;;;;;;-145.18;100.00;60484.78;5019196;28;20025;-73
2021/09/16 06:49:46;;;;;;;6.03;2.20;;;;;;;-145.18;100.00;60484.78;5018959;28;20534;-73
2021/09/16 06:52:13;;;;;;;10.67;2.53;;;;;;;-145.18;100.00;60484.78;5018862;28;20510;-73
2021/09/16 06:54:39;;;;;;;6.63;2.40;;;;;;;-145.18;100.00;60484.78;5019543;28;20026;-72
2021/09/16 06:57:04;;;;;;;4.43;2.27;;;;;;;-145.18;100.00;60484.78;5018716;28;20025;-73
2021/09/16 06:59:30;;;;;;;4.17;2.20;;;;;;;-145.18;100.00;60484.78;5019699;28;20036;-74
2021/09/16 07:01:55;;;;;;;5.57;2.43;;;;;;;-145.18;100.00;60484.78;5017682;28;20030;-73
2021/09/16 07:04:21;;;;;;;6.57;2.30;;;;;;;-145.18;100.00;60484.78;5018711;28;20428;-73
2021/09/16 07:06:46;;;;;;;5.23;2.57;;;;;;;-145.18;100.00;60484.78;5018015;28;20310;-73
2021/09/16 07:09:12;;;;;;;7.17;2.70;;;;;;;-145.18;100.00;60484.78;5008300;28;20072;-73
2021/09/16 07:11:37;;;;;;;6.17;2.27;;;;;;;-145.18;100.00;60484.78;5016491;28;20032;-73
2021/09/16 07:14:03;;;;;;;4.93;2.43;;;;;;;-145.18;100.00;60484.78;5019169;28;20029;-73
2021/09/16 07:16:29;;;;;;;8.10;2.80;;;;;;;-145.18;100.00;60484.78;5019666;28;20029;-73
2021/09/16 07:18:54;;;;;;;5.33;2.53;;;;;;;-145.18;100.00;60484.78;5019188;28;20522;-73
2021/09/16 07:21:20;;;;;;;5.53;2.47;;;;;;;-145.18;100.00;60484.78;5006624;28;20080;-73
2021/09/16 07:23:49;;;;;;;10.07;2.87;;;;;;;-145.18;100.00;60484.78;5018454;28;20309;-74
2021/09/16 07:26:17;;;;;;;5.80;2.60;;;;;;;-145.18;100.00;60484.78;5018976;28;20030;-73
2021/09/16 07:28:43;;;;;;;6.20;2.57;;;;;;;-145.18;100.00;60484.78;5019136;28;20029;-72
2021/09/16 07:31:08;;;;;;;8.53;3.00;;;;;;;-145.18;100.00;60484.78;5019581;28;20039;-73
2021/09/16 07:33:34;;;;;;;15.37;3.33;;;;;;;-145.18;100.00;60484.78;5018839;28;20662;-74
2021/09/16 07:36:00;;;;;;;7.27;3.37;;;;;;;-145.18;100.00;60484.78;5018896;28;20028;-73
2021/09/16 07:38:25;;;;;;;7.13;2.90;;;;;;;-145.18;100.00;60484.78;5018880;28;20052;-73
2021/09/16 07:40:51;;;;;;;6.77;2.70;;;;;;;-145.18;100.00;60484.78;5019275;28;20032;-73
2021/09/16 07:43:17;;;;;;;5.97;2.70;;;;;;;-145.18;100.00;60484.78;5018750;28;20585;-72
2021/09/16 07:45:43;;;;;;;5.70;2.43;;;;;;;-145.18;100.00;60484.78;5016961;28;20025;-72
2021/09/16 07:48:08;;;;;;;8.23;2.70;;;;;;;-145.18;100.00;60484.78;5018881;28;20033;-72
2021/09/16 07:50:36;;;;;;;6.20;2.67;;;;;;;-145.18;100.00;60484.78;5023877;28;20025;-73
2021/09/16 07:53:02;;;;;;;5.60;2.60;;;;;;;-145.18;100.00;60484.78;5018510;28;20068;-72
2021/09/16 07:55:27;;;;;;;9.37;2.70;;;;;;;-145.18;100.00;60484.78;5018531;28;20474;-73
2021/09/16 07:57:53;;;;;;;7.30;2.80;;;;;;;-145.18;100.00;60484.78;5018899;28;20099;-73
2021/09/16 08:00:18;;;;;;;7.10;2.87;;;;;;;-145.18;100.00;60484.78;5019102;28;20026;-73
2021/09/16 08:02:51;;;;;;;8.40;2.90;;;;;;;-145.18;100.00;60484.78;5017979;28;20519;-73
2021/09/16 08:05:17;;;;;;;8.00;3.10;;;;;;;-145.18;100.00;60484.78;5017242;28;20105;-73
2021/09/16 08:07:44;;;;;;;8.50;3.47;;;;;;;-145.18;100.00;60484.78;5017509;28;20207;-71
2021/09/16 08:10:11;;;;;;;9.37;3.10;;;;;;;-145.18;100.00;60484.78;5017658;28;20071;-72
2021/09/16 08:12:37;;;;;;;7.77;3.00;;;;;;;-145.18;100.00;60484.78;5017340;28;20231;-73
2021/09/16 08:15:05;;;;;;;8.63;2.90;;;;;;;-145.18;100.00;60484.78;5017503;28;20076;-73
2021/09/16 08:17:30;;;;;;;5.70;2.53;;;;;;;-145.18;100.00;60484.78;5018325;28;20106;-73
2021/09/16 08:19:56;;;;;;;9.27;3.50;;;;;;;-145.18;100.00;60484.78;5018517;28;20033;-73
2021/09/16 08:22:22;;;;;;;6.00;2.40;;;;;;;-145.18;100.00;60484.78;5017988;28;20099;-72
2021/09/16 08:24:47;;;;;;;7.23;3.17;;;;;;;-145.18;100.00;60484.78;5016979;28;20397;-73
2021/09/16 08:27:13;;;;;;;5.57;3.00;;;;;;;-145.18;100.00;60484.78;5017366;28;20121;-73
2021/09/16 08:29:38;;;;;;;5.40;2.40;;;;;;;-145.18;100.00;60484.78;5017293;28;20116;-71
2021/09/16 08:32:04;;;;;;;6.00;3.40;;;;;;;-145.18;100.00;60484.78;5016950;28;20479;-74
2021/09/16 08:34:30;;;;;;;5.87;2.80;;;;;;;-145.18;100.00;60484.78;5012606;28;20113;-74
2021/09/16 08:36:56;;;;;;;6.93;2.50;;;;;;;-145.18;100.00;60484.78;5017901;28;20116;-73
2021/09/16 08:39:23;;;;;;;6.10;2.47;;;;;;;-145.18;100.00;60484.78;5021541;28;20029;-74
2021/09/16 08:41:48;;;;;;;6.33;2.67;;;;;;;-145.18;100.00;60484.78;5021734;28;20199;-73
2021/09/16 08:44:17;;;;;;;5.77;2.37;;;;;;;-145.18;100.00;60484.78;5022488;28;20448;-74
2021/09/16 08:46:43;;;;;;;8.17;2.87;;;;;;;-145.18;100.00;60484.78;5022041;28;20026;-75
2021/09/16 08:49:09;;;;;;;6.43;2.50;;;;;;;-145.18;100.00;60484.78;5022656;28;20026;-77
2021/09/16 08:51:37;;;;;;;6.70;2.33;;;;;;;-145.18;100.00;60484.78;5023121;28;20021;-76
2021/09/16 08:54:04;;;;;;;6.05;2.13;;;;;;;-145.18;100.00;60484.78;5022161;28;20463;-77
2021/09/16 08:56:29;;;;;;;6.80;2.35;;;;;;;-145.18;100.00;60484.78;5021414;28;20076;-73
2021/09/16 08:59:01;;;;;;;6.78;2.17;;;;;;;-145.18;100.00;60484.78;5022107;28;20110;-76
2021/09/16 09:01:27;;;;;;;5.93;2.50;;;;;;;-145.18;100.00;60484.78;5022388;28;20021;-76
2021/09/16 09:03:52;;;;;;;4.90;1.90;;;;;;;-145.18;100.00;60484.78;5021644;28;20098;-75
2021/09/16 09:06:27;;;;;;;6.20;1.95;;;;;;;-145.18;100.00;60484.78;5021450;28;20067;-76
2021/09/16 09:09:11;;;;;;;7.80;2.42;;;;;;;-145.18;100.00;60484.78;5020554;28;20427;-77
2021/09/16 09:12:02;;;;;;;5.78;2.25;;;;;;;-145.18;100.00;60484.78;5015544;28;20121;-77
2021/09/16 09:14:39;;;;;;;5.50;2.08;;;;;;;-145.18;100.00;60484.78;5019957;28;20025;-75
2021/09/16 09:17:37;;;;;;;5.70;2.00;;;;;;;-145.18;100.00;60484.78;5019873;28;20026;-75
2021/09/16 09:20:10;;;;;;;8.65;2.35;;;;;;;-145.18;100.00;60484.78;4962487;28;20182;-74
2021/09/16 09:22:39;;;;;;;5.47;1.80;;;;;;;-145.18;100.00;60484.78;4963911;28;20042;-74
2021/09/16 09:25:10;;;;;;;8.98;2.40;;;;;;;-145.18;100.00;60484.78;4972758;28;20108;-74
2021/09/16 09:27:46;;;;;;;7.30;2.17;;;;;;;-145.18;100.00;60484.78;4947251;28;20030;-74
2021/09/16 09:30:27;;;;;;;5.00;1.85;;;;;;;-145.18;100.00;60484.78;4960351;28;20038;-75
2021/09/16 09:33:05;;;;;;;5.57;1.70;;;;;;;-145.18;100.00;60484.78;4962503;28;20039;-74
2021/09/16 09:35:41;;;;;;;4.57;1.90;;;;;;;-145.18;100.00;60484.78;4960916;28;20043;-74
2021/09/16 09:38:46;;;;;;;5.35;2.25;;;;;;;-145.18;100.00;60484.78;4960992;28;20296;-74
2021/09/16 09:41:11;;;;;;;8.75;2.47;;;;;;;-145.18;100.00;60484.78;4960704;28;20058;-75
2021/09/16 09:43:38;;;;;;;4.72;1.70;;;;;;;-145.18;100.00;60484.78;4960540;28;20279;-75
2021/09/16 09:46:14;;;;;;;5.15;1.88;;;;;;;-145.18;100.00;60484.78;4969996;28;20424;-74
2021/09/16 09:49:01;;;;;;;6.95;2.00;;;;;;;-145.18;100.00;60484.78;4960628;28;20436;-73
2021/09/16 09:52:01;;;;;;;9.70;2.70;;;;;;;-145.18;100.00;60484.78;4960072;28;20035;-73
2021/09/16 09:54:33;;;;;;;5.47;2.03;;;;;;;-145.18;100.00;60484.78;4968950;28;20054;-74
2021/09/16 09:57:18;;;;;;;4.97;1.70;;;;;;;-145.18;100.00;60484.78;5021475;28;20025;-75
2021/09/16 09:59:52;;;;;;;4.75;1.45;;;;;;;-145.18;100.00;60484.78;5020039;28;20041;-73
2021/09/16 10:02:19;;;;;;;4.47;1.45;;;;;;;-145.18;100.00;60484.78;5021623;28;20112;-74
2021/09/16 10:04:46;;;;;;;5.65;1.40;;;;;;;-145.18;100.00;60484.78;5020797;28;20120;-73
2021/09/16 10:07:27;;;;;;;3.83;1.13;;;;;;;-145.18;100.00;60484.78;5020910;28;20033;-73
2021/09/16 10:09:55;;;;;;;2.88;1.30;;;;;;;-145.18;100.00;60484.78;5020779;28;20095;-71
2021/09/16 10:12:20;;;;;;;4.57;1.38;;;;;;;-145.18;100.00;60484.78;5015931;28;20033;-75
2021/09/16 10:14:46;;;;;;;5.38;1.50;;;;;;;-145.18;100.00;60484.78;5021231;28;20048;-72
2021/09/16 10:17:11;;;;;;;3.08;1.17;;;;;;;-145.18;100.00;60484.78;5020970;28;20502;-73
2021/09/16 10:19:40;;;;;;;3.33;1.17;;;;;;;-145.18;100.00;60484.78;5020557;28;20450;-73
2021/09/16 10:22:08;;;;;;;6.82;1.30;;;;;;;-145.18;100.00;60484.78;5020347;28;20029;-73
2021/09/16 10:24:35;;;;;;;2.88;1.17;;;;;;;-145.18;100.00;60484.78;5016841;28;20108;-74
2021/09/16 10:27:00;;;;;;;3.53;1.17;;;;;;;-145.18;100.00;60484.78;5020021;28;20678;-73
2021/09/16 10:29:34;;;;;;;5.25;1.23;;;;;;;-145.18;100.00;60484.78;5020289;28;20033;-74
2021/09/16 10:32:43;;;;;;;3.63;1.27;;;;;;;-145.18;100.00;60484.78;5011061;28;20048;-75
2021/09/16 10:35:18;;;;;;;4.80;1.20;;;;;;;-145.18;100.00;60484.78;4959855;28;20102;-73
2021/09/16 10:37:43;;;;;;;7.13;1.40;;;;;;;-145.18;100.00;60484.78;4958514;28;20015;-74
2021/09/16 10:40:26;;;;;;;8.95;1.95;;;;;;;-145.18;100.00;60484.78;4958736;28;20049;-73
2021/09/16 10:42:56;;;;;;;4.35;1.50;;;;;;;-145.18;100.00;60484.78;4958133;28;20504;-73
2021/09/16 10:45:40;;;;;;;3.17;1.17;;;;;;;-145.18;100.00;60484.78;4958233;28;20260;-73
2021/09/16 10:48:34;;;;;;;3.37;1.20;;;;;;;-145.18;100.00;60484.78;4957649;28;20033;-73
2021/09/16 10:51:02;;;;;;;5.67;1.60;;;;;;;-145.18;100.00;60484.78;4948477;28;20071;-73
2021/09/16 10:53:42;;;;;;;5.80;1.40;;;;;;;-145.18;100.00;60484.78;4958497;28;20773;-73
2021/09/16 10:56:44;;;;;;;4.53;1.70;;;;;;;-145.18;100.00;60484.78;4946737;28;20030;-73
2021/09/16 10:59:09;;;;;;;3.75;1.60;;;;;;;-145.18;100.00;60484.78;4958660;28;20031;-72
2021/09/16 11:02:10;;;;;;;5.03;1.70;;;;;;;-145.18;100.00;60484.78;4957723;28;20146;-73
2021/09/16 11:05:06;;;;;;;6.13;1.70;;;;;;;-145.18;100.00;60484.78;4926441;29;20656;-73
2021/09/16 11:07:53;;;;;;;4.77;1.50;;;;;;;-145.18;100.00;60484.78;4914646;29;20316;-73
2021/09/16 11:10:51;;;;;;;5.93;1.40;;;;;;;-145.18;100.00;60484.78;4919815;29;20491;-73
2021/09/16 11:13:40;;;;;;;3.47;1.10;;;;;;;-145.18;100.00;60484.78;4952854;28;20082;-73